Time;durP1;ratioP1;P1;durP2;ratioP2;P2;SDS_P1;SDS_P2;PMS_P1;PMS_P2;Temp;Humidity;BMP_temperature;BMP_pressure;BME280_temperature;BME280_humidity;BME280_pressure;Samples;Min_cycle;Max_cycle;Signal;HPM_P1;HPM_P2
2020/12/02 00:00:23;;;;;;;48.67;33.77;;;;;;;;;;5077321;28;20663;-64
2020/12/02 00:02:52;;;;;;;45.73;32.93;;;;;;;;;;5077075;28;20395;-63
2020/12/02 00:05:18;;;;;;;11.57;9.97;;;;;;;;;;5077242;28;20179;-56
2020/12/02 00:07:46;;;;;;;38.00;27.53;;;;;;;;;;5077063;28;20403;-55
2020/12/02 00:10:11;;;;;;;46.50;33.40;;;;;;;;;;5076687;28;21216;-64
2020/12/02 00:12:36;;;;;;;43.93;30.90;;;;;;;;;;5076931;28;20411;-63
2020/12/02 00:15:01;;;;;;;40.13;30.00;;;;;;;;;;5077093;28;20172;-62
2020/12/02 00:17:27;;;;;;;46.63;33.30;;;;;;;;;;5076654;28;20383;-64
2020/12/02 00:19:52;;;;;;;44.43;32.10;;;;;;;;;;5076998;28;20156;-63
2020/12/02 00:22:19;;;;;;;44.03;31.87;;;;;;;;;;5077353;28;20153;-64
2020/12/02 00:24:44;;;;;;;43.53;30.53;;;;;;;;;;5076872;28;20597;-66
2020/12/02 00:27:16;;;;;;;48.43;32.87;;;;;;;;;;5076825;28;20399;-63
2020/12/02 00:29:41;;;;;;;41.47;31.23;;;;;;;;;;5077074;28;20248;-63
2020/12/02 00:32:07;;;;;;;48.10;32.33;;;;;;;;;;5076855;28;20522;-64
2020/12/02 00:34:32;;;;;;;46.07;30.40;;;;;;;;;;5076734;28;20427;-63
2020/12/02 00:36:57;;;;;;;45.27;32.00;;;;;;;;;;5077155;28;20252;-64
2020/12/02 00:39:22;;;;;;;47.17;32.67;;;;;;;;;;5076842;28;20172;-64
2020/12/02 00:41:48;;;;;;;49.80;32.67;;;;;;;;;;5076958;28;20188;-63
2020/12/02 00:44:14;;;;;;;46.50;31.90;;;;;;;;;;5076996;28;20515;-64
2020/12/02 00:46:39;;;;;;;51.70;32.13;;;;;;;;;;5077238;28;20245;-64
2020/12/02 00:49:04;;;;;;;45.57;30.90;;;;;;;;;;5080617;28;20214;-64
2020/12/02 00:51:29;;;;;;;48.80;33.70;;;;;;;;;;5080915;28;20184;-64
2020/12/02 00:53:55;;;;;;;44.10;30.23;;;;;;;;;;5080486;28;20157;-65
2020/12/02 00:56:20;;;;;;;46.30;32.47;;;;;;;;;;5080380;28;20168;-64
2020/12/02 00:59:00;;;;;;;47.67;32.20;;;;;;;;;;5080693;28;20239;-65
2020/12/02 01:01:31;;;;;;;46.93;31.57;;;;;;;;;;5080521;28;20157;-64
2020/12/02 01:03:57;;;;;;;51.00;33.00;;;;;;;;;;5080453;28;20804;-64
2020/12/02 01:06:22;;;;;;;44.90;31.77;;;;;;;;;;5080157;28;20937;-63
2020/12/02 01:08:50;;;;;;;43.87;32.57;;;;;;;;;;5080019;28;20542;-65
2020/12/02 01:11:15;;;;;;;50.70;32.70;;;;;;;;;;5080565;28;20204;-64
2020/12/02 01:13:41;;;;;;;47.50;32.90;;;;;;;;;;5080065;28;20423;-65
2020/12/02 01:16:11;;;;;;;47.70;32.67;;;;;;;;;;5080139;28;20196;-63
2020/12/02 01:18:36;;;;;;;45.50;30.00;;;;;;;;;;5080354;28;20535;-64
2020/12/02 01:21:15;;;;;;;50.90;33.40;;;;;;;;;;5080094;28;20414;-64
2020/12/02 01:23:41;;;;;;;47.67;29.87;;;;;;;;;;5079938;28;20222;-64
2020/12/02 01:26:06;;;;;;;47.20;31.67;;;;;;;;;;5079869;28;20391;-64
2020/12/02 01:28:32;;;;;;;50.28;32.50;;;;;;;;;;5079648;28;20713;-63
2020/12/02 01:30:58;;;;;;;48.13;33.43;;;;;;;;;;5079999;28;20195;-64
2020/12/02 01:33:23;;;;;;;54.20;33.50;;;;;;;;;;5079832;28;20412;-65
2020/12/02 01:35:49;;;;;;;51.57;33.30;;;;;;;;;;5079722;28;20399;-64
2020/12/02 01:38:18;;;;;;;53.00;33.40;;;;;;;;;;5079900;28;20185;-64
2020/12/02 01:40:43;;;;;;;47.40;30.17;;;;;;;;;;5079710;28;20395;-64
2020/12/02 01:43:09;;;;;;;47.37;33.30;;;;;;;;;;5079677;28;20425;-64
2020/12/02 01:45:37;;;;;;;46.93;31.33;;;;;;;;;;5080017;28;20161;-64
2020/12/02 01:48:09;;;;;;;45.03;29.93;;;;;;;;;;5079478;28;20391;-64
2020/12/02 01:50:37;;;;;;;47.37;32.33;;;;;;;;;;5079349;28;20481;-64
2020/12/02 01:53:02;;;;;;;53.43;33.60;;;;;;;;;;5079267;28;20427;-65
2020/12/02 01:55:31;;;;;;;45.50;30.95;;;;;;;;;;5079416;28;20410;-64
2020/12/02 01:57:59;;;;;;;50.93;32.90;;;;;;;;;;5079332;28;20176;-64
2020/12/02 02:00:26;;;;;;;52.87;33.70;;;;;;;;;;5078963;28;20426;-64
2020/12/02 02:02:56;;;;;;;46.60;32.20;;;;;;;;;;5079336;28;20673;-63
2020/12/02 02:05:25;;;;;;;52.87;34.97;;;;;;;;;;5079558;28;20471;-64
2020/12/02 02:07:51;;;;;;;45.53;31.20;;;;;;;;;;5078888;28;20407;-63
2020/12/02 02:10:18;;;;;;;46.63;31.20;;;;;;;;;;5078881;28;20482;-64
2020/12/02 02:13:04;;;;;;;48.97;32.40;;;;;;;;;;5079444;28;20464;-64
2020/12/02 02:15:48;;;;;;;45.47;32.33;;;;;;;;;;5078995;28;20403;-64
2020/12/02 02:18:15;;;;;;;46.03;31.77;;;;;;;;;;5078958;28;20477;-65
2020/12/02 02:20:42;;;;;;;42.30;30.83;;;;;;;;;;5078880;28;20452;-64
2020/12/02 02:23:10;;;;;;;49.50;32.87;;;;;;;;;;5079024;28;20406;-65
2020/12/02 02:25:36;;;;;;;52.17;34.07;;;;;;;;;;5079143;28;20459;-64
2020/12/02 02:28:02;;;;;;;43.80;31.90;;;;;;;;;;5077834;28;20418;-64
2020/12/02 02:30:27;;;;;;;47.00;30.77;;;;;;;;;;5078613;28;20549;-63
2020/12/02 02:32:53;;;;;;;46.93;32.30;;;;;;;;;;5078867;28;20505;-63
2020/12/02 02:35:19;;;;;;;49.00;32.50;;;;;;;;;;5079101;28;20169;-64
2020/12/02 02:37:44;;;;;;;50.57;32.63;;;;;;;;;;5078569;28;20414;-65
2020/12/02 02:40:10;;;;;;;46.90;33.87;;;;;;;;;;5078877;28;20179;-64
2020/12/02 02:42:38;;;;;;;50.93;34.00;;;;;;;;;;5078451;28;20203;-64
2020/12/02 02:45:08;;;;;;;44.57;31.20;;;;;;;;;;5078353;28;20801;-64
2020/12/02 02:47:33;;;;;;;41.20;29.73;;;;;;;;;;5078640;28;20453;-64
2020/12/02 02:49:58;;;;;;;44.47;31.67;;;;;;;;;;5078369;28;20463;-64
2020/12/02 02:52:23;;;;;;;45.33;32.30;;;;;;;;;;5078396;28;20319;-63
2020/12/02 02:54:48;;;;;;;46.85;31.48;;;;;;;;;;5078600;28;20428;-63
2020/12/02 02:57:14;;;;;;;49.33;32.37;;;;;;;;;;5078094;28;20225;-63
2020/12/02 02:59:39;;;;;;;47.60;33.03;;;;;;;;;;5077929;28;20176;-63
2020/12/02 03:02:04;;;;;;;47.10;32.83;;;;;;;;;;5078476;28;20168;-64
2020/12/02 03:04:29;;;;;;;48.30;32.40;;;;;;;;;;5078105;28;20488;-64
2020/12/02 03:06:54;;;;;;;49.92;33.65;;;;;;;;;;5077951;28;20161;-64
2020/12/02 03:09:20;;;;;;;48.85;33.22;;;;;;;;;;5078072;28;21254;-63
2020/12/02 03:11:45;;;;;;;47.33;33.03;;;;;;;;;;5077035;28;20188;-64
2020/12/02 03:14:11;;;;;;;45.53;32.23;;;;;;;;;;5078060;28;20176;-64
2020/12/02 03:16:42;;;;;;;45.97;31.70;;;;;;;;;;5077670;28;20226;-64
2020/12/02 03:19:10;;;;;;;45.83;31.13;;;;;;;;;;5077846;28;20441;-65
2020/12/02 03:21:36;;;;;;;43.90;32.10;;;;;;;;;;5078117;28;20659;-64
2020/12/02 03:24:01;;;;;;;42.97;30.20;;;;;;;;;;5077805;28;20424;-64
2020/12/02 03:26:26;;;;;;;46.33;31.80;;;;;;;;;;5077703;28;20165;-64
2020/12/02 03:28:53;;;;;;;49.40;33.97;;;;;;;;;;5077876;28;20157;-64
2020/12/02 03:31:20;;;;;;;44.87;30.70;;;;;;;;;;5077426;28;20480;-64
2020/12/02 03:33:45;;;;;;;46.03;32.30;;;;;;;;;;5077673;28;20690;-63
2020/12/02 03:36:12;;;;;;;42.80;29.90;;;;;;;;;;5077759;28;20391;-64
2020/12/02 03:38:38;;;;;;;47.53;32.40;;;;;;;;;;5077456;28;20196;-63
2020/12/02 03:41:03;;;;;;;42.87;30.43;;;;;;;;;;5077382;28;20404;-64
2020/12/02 03:43:28;;;;;;;44.47;31.27;;;;;;;;;;5077753;28;20400;-64
2020/12/02 03:45:54;;;;;;;47.33;32.55;;;;;;;;;;5077267;28;20252;-64
2020/12/02 03:48:19;;;;;;;49.13;33.08;;;;;;;;;;5077362;28;20165;-64
2020/12/02 03:50:45;;;;;;;47.60;30.10;;;;;;;;;;5079850;28;20207;-64
2020/12/02 03:53:10;;;;;;;43.90;31.60;;;;;;;;;;5082588;28;20413;-64
2020/12/02 03:55:35;;;;;;;45.70;32.17;;;;;;;;;;5097435;28;20398;-64
2020/12/02 03:58:01;;;;;;;44.50;29.90;;;;;;;;;;5085435;28;20200;-63
2020/12/02 04:00:26;;;;;;;45.63;30.20;;;;;;;;;;5077075;28;20171;-64
2020/12/02 04:02:51;;;;;;;41.90;30.07;;;;;;;;;;5077027;28;20160;-63
2020/12/02 04:05:17;;;;;;;49.37;31.30;;;;;;;;;;5070312;28;20162;-63
2020/12/02 04:07:42;;;;;;;43.67;30.67;;;;;;;;;;5059283;28;20554;-63
2020/12/02 04:10:07;;;;;;;48.17;31.97;;;;;;;;;;5076902;28;20695;-64
2020/12/02 04:12:32;;;;;;;41.37;29.60;;;;;;;;;;5075701;28;20214;-64
2020/12/02 04:14:58;;;;;;;45.00;31.50;;;;;;;;;;5075303;28;20165;-64
2020/12/02 04:17:23;;;;;;;43.77;31.60;;;;;;;;;;5075135;28;20168;-63
2020/12/02 04:19:48;;;;;;;44.85;30.42;;;;;;;;;;5076072;28;20448;-64
2020/12/02 04:22:13;;;;;;;39.13;29.67;;;;;;;;;;5075771;28;20188;-63
2020/12/02 04:24:38;;;;;;;47.13;33.45;;;;;;;;;;5076224;28;20435;-64
2020/12/02 04:27:03;;;;;;;43.60;30.00;;;;;;;;;;5076594;28;20173;-62
2020/12/02 04:29:29;;;;;;;43.73;30.90;;;;;;;;;;5076877;28;20168;-63
2020/12/02 04:31:54;;;;;;;49.50;32.37;;;;;;;;;;5076776;28;20231;-63
2020/12/02 04:34:19;;;;;;;51.53;35.30;;;;;;;;;;5077215;28;20157;-63
2020/12/02 04:36:48;;;;;;;55.70;36.03;;;;;;;;;;5076766;28;20240;-64
2020/12/02 04:39:14;;;;;;;46.47;31.97;;;;;;;;;;5076870;28;20190;-63
2020/12/02 04:41:39;;;;;;;46.87;33.13;;;;;;;;;;5077053;28;20391;-63
2020/12/02 04:44:04;;;;;;;44.60;31.70;;;;;;;;;;5076880;28;20241;-64
2020/12/02 04:46:32;;;;;;;40.27;29.87;;;;;;;;;;5076619;28;20187;-63
2020/12/02 04:49:02;;;;;;;44.50;31.70;;;;;;;;;;5077000;28;20226;-64
2020/12/02 04:51:28;;;;;;;46.40;31.80;;;;;;;;;;5076578;28;20757;-64
2020/12/02 04:53:55;;;;;;;44.13;31.83;;;;;;;;;;5076580;28;20457;-64
2020/12/02 04:56:20;;;;;;;47.80;31.27;;;;;;;;;;5076742;28;20427;-62
2020/12/02 04:58:46;;;;;;;42.03;30.60;;;;;;;;;;5076548;28;20442;-64
2020/12/02 05:01:13;;;;;;;41.97;31.43;;;;;;;;;;5076530;28;20181;-62
2020/12/02 05:03:46;;;;;;;42.53;30.20;;;;;;;;;;5076918;28;20406;-63
2020/12/02 05:06:11;;;;;;;43.47;29.50;;;;;;;;;;5076407;28;20681;-64
2020/12/02 05:08:36;;;;;;;41.50;29.90;;;;;;;;;;5076306;28;20411;-63
2020/12/02 05:11:07;;;;;;;46.03;30.70;;;;;;;;;;5076685;28;20570;-64
2020/12/02 05:13:32;;;;;;;40.80;28.47;;;;;;;;;;5076522;28;20168;-63
2020/12/02 05:16:07;;;;;;;40.30;30.48;;;;;;;;;;5076358;28;20644;-64
2020/12/02 05:18:33;;;;;;;43.73;29.63;;;;;;;;;;5076400;28;20161;-63
2020/12/02 05:21:20;;;;;;;38.90;28.87;;;;;;;;;;5076535;28;20529;-64
2020/12/02 05:24:02;;;;;;;43.53;31.00;;;;;;;;;;5076515;28;20165;-63
2020/12/02 05:26:29;;;;;;;44.53;30.40;;;;;;;;;;5076115;28;20879;-63
2020/12/02 05:28:54;;;;;;;47.03;33.43;;;;;;;;;;5076307;28;20463;-64
2020/12/02 05:31:22;;;;;;;41.57;29.10;;;;;;;;;;5076099;28;20467;-64
2020/12/02 05:33:47;;;;;;;45.77;31.70;;;;;;;;;;5077464;28;20428;-63
2020/12/02 05:36:12;;;;;;;40.70;29.50;;;;;;;;;;5079666;28;20407;-63
2020/12/02 05:38:39;;;;;;;43.57;31.50;;;;;;;;;;5079899;28;20273;-64
2020/12/02 05:41:09;;;;;;;38.20;28.50;;;;;;;;;;5079948;28;20163;-62
2020/12/02 05:43:34;;;;;;;41.80;28.57;;;;;;;;;;5079759;28;20395;-64
2020/12/02 05:45:59;;;;;;;40.88;29.05;;;;;;;;;;5079553;28;20395;-63
2020/12/02 05:48:26;;;;;;;38.90;29.40;;;;;;;;;;5080055;28;20169;-63
2020/12/02 05:50:53;;;;;;;41.50;30.30;;;;;;;;;;5079345;28;20215;-64
2020/12/02 05:53:22;;;;;;;41.77;29.40;;;;;;;;;;5079400;28;20404;-64
2020/12/02 05:55:49;;;;;;;44.00;29.17;;;;;;;;;;5079651;28;20384;-64
2020/12/02 05:58:17;;;;;;;43.03;29.20;;;;;;;;;;5079233;28;20410;-63
2020/12/02 06:00:42;;;;;;;41.67;28.60;;;;;;;;;;5079383;28;20453;-63
2020/12/02 06:03:12;;;;;;;40.27;31.17;;;;;;;;;;5079649;28;20403;-64
2020/12/02 06:05:37;;;;;;;39.93;28.50;;;;;;;;;;5079308;28;20214;-64
2020/12/02 06:08:03;;;;;;;44.90;29.50;;;;;;;;;;5079231;28;20407;-64
2020/12/02 06:10:38;;;;;;;40.23;29.13;;;;;;;;;;5078969;28;20236;-63
2020/12/02 06:13:03;;;;;;;46.43;32.67;;;;;;;;;;5079173;28;20411;-63
2020/12/02 06:15:35;;;;;;;46.70;30.97;;;;;;;;;;5079332;28;20800;-63
2020/12/02 06:18:20;;;;;;;44.03;27.93;;;;;;;;;;5078853;28;20165;-64
2020/12/02 06:20:46;;;;;;;44.33;28.57;;;;;;;;;;5079177;28;20403;-64
2020/12/02 06:23:11;;;;;;;40.07;29.13;;;;;;;;;;5078724;28;20503;-64
2020/12/02 06:25:53;;;;;;;39.97;28.77;;;;;;;;;;5078824;28;20666;-64
2020/12/02 06:28:21;;;;;;;44.30;30.87;;;;;;;;;;5078580;28;20449;-63
2020/12/02 06:30:54;;;;;;;40.40;28.23;;;;;;;;;;5078748;28;20480;-63
2020/12/02 06:33:20;;;;;;;42.80;29.27;;;;;;;;;;5078707;28;20407;-64
2020/12/02 06:35:48;;;;;;;43.67;28.60;;;;;;;;;;5078658;28;20677;-64
2020/12/02 06:38:20;;;;;;;44.73;30.63;;;;;;;;;;5078901;28;20313;-62
2020/12/02 06:40:50;;;;;;;43.83;30.03;;;;;;;;;;5078550;28;20530;-62
2020/12/02 06:43:16;;;;;;;41.60;30.97;;;;;;;;;;5078543;28;20399;-63
2020/12/02 06:45:41;;;;;;;46.17;31.20;;;;;;;;;;5078358;28;20407;-63
2020/12/02 06:48:12;;;;;;;40.93;30.23;;;;;;;;;;5078566;28;20239;-62
2020/12/02 06:50:38;;;;;;;45.93;32.50;;;;;;;;;;5078549;28;20192;-64
2020/12/02 06:53:10;;;;;;;44.87;31.27;;;;;;;;;;5078142;28;20676;-64
2020/12/02 06:55:36;;;;;;;43.87;29.43;;;;;;;;;;5078274;28;20180;-62
2020/12/02 06:58:09;;;;;;;41.47;28.53;;;;;;;;;;5078438;28;20673;-63
2020/12/02 07:00:39;;;;;;;41.53;28.70;;;;;;;;;;5078105;28;20219;-63
2020/12/02 07:03:15;;;;;;;42.57;30.40;;;;;;;;;;5078277;28;20486;-63
2020/12/02 07:05:43;;;;;;;42.27;29.70;;;;;;;;;;5078255;28;20415;-62
2020/12/02 07:08:13;;;;;;;40.90;30.80;;;;;;;;;;5078013;28;20407;-63
2020/12/02 07:10:40;;;;;;;40.73;29.53;;;;;;;;;;5077908;28;20489;-62
2020/12/02 07:13:05;;;;;;;41.33;30.60;;;;;;;;;;5078104;28;20403;-62
2020/12/02 07:15:31;;;;;;;45.67;29.17;;;;;;;;;;5078313;28;20413;-64
2020/12/02 07:18:09;;;;;;;38.77;26.70;;;;;;;;;;5077752;28;20608;-62
2020/12/02 07:20:35;;;;;;;36.83;28.77;;;;;;;;;;5078081;28;20211;-63
2020/12/02 07:23:00;;;;;;;42.83;29.90;;;;;;;;;;5078001;28;20396;-64
2020/12/02 07:25:26;;;;;;;39.63;27.87;;;;;;;;;;5077763;28;20440;-63
2020/12/02 07:27:51;;;;;;;39.13;27.40;;;;;;;;;;5077884;28;20210;-63
2020/12/02 07:30:19;;;;;;;51.93;28.97;;;;;;;;;;5077610;28;20446;-63
2020/12/02 07:32:44;;;;;;;39.47;28.93;;;;;;;;;;5077545;28;20203;-63
2020/12/02 07:35:17;;;;;;;38.67;29.85;;;;;;;;;;5077841;28;20391;-63
2020/12/02 07:37:42;;;;;;;36.80;27.90;;;;;;;;;;5077330;28;20255;-63
2020/12/02 07:40:22;;;;;;;38.10;26.83;;;;;;;;;;5077479;28;20446;-63
2020/12/02 07:42:47;;;;;;;40.83;28.67;;;;;;;;;;5077365;28;20210;-63
2020/12/02 07:45:12;;;;;;;38.50;26.77;;;;;;;;;;5077332;28;20403;-64
2020/12/02 07:47:38;;;;;;;38.38;26.58;;;;;;;;;;5077576;28;20255;-64
2020/12/02 07:50:05;;;;;;;42.97;29.10;;;;;;;;;;5077140;28;20297;-63
2020/12/02 07:52:35;;;;;;;38.83;28.57;;;;;;;;;;5077145;28;20180;-63
2020/12/02 07:55:00;;;;;;;38.77;27.20;;;;;;;;;;5077558;28;20388;-64
2020/12/02 07:57:25;;;;;;;39.10;26.93;;;;;;;;;;5076478;28;20407;-63
2020/12/02 08:00:09;;;;;;;38.60;27.87;;;;;;;;;;5077224;28;20172;-63
2020/12/02 08:02:38;;;;;;;36.93;27.37;;;;;;;;;;5077092;28;20458;-64
2020/12/02 08:05:15;;;;;;;38.07;27.27;;;;;;;;;;5077208;28;20414;-62
2020/12/02 08:07:57;;;;;;;40.23;29.10;;;;;;;;;;5077013;28;20417;-64
2020/12/02 08:10:24;;;;;;;37.47;27.10;;;;;;;;;;5077064;28;20497;-64
2020/12/02 08:12:49;;;;;;;37.83;27.87;;;;;;;;;;5077238;28;20819;-63
2020/12/02 08:15:15;;;;;;;38.30;29.00;;;;;;;;;;5077159;28;20470;-63
2020/12/02 08:17:40;;;;;;;43.07;30.07;;;;;;;;;;5077423;28;20206;-65
2020/12/02 08:20:20;;;;;;;39.57;27.40;;;;;;;;;;5077587;28;20168;-65
2020/12/02 08:22:47;;;;;;;36.53;27.90;;;;;;;;;;5077062;28;20797;-64
2020/12/02 08:25:21;;;;;;;38.47;28.30;;;;;;;;;;5077189;28;20391;-65
2020/12/02 08:28:06;;;;;;;36.57;27.60;;;;;;;;;;5076822;28;20440;-64
2020/12/02 08:30:32;;;;;;;39.80;28.40;;;;;;;;;;5076742;28;20455;-63
2020/12/02 08:33:01;;;;;;;37.80;28.20;;;;;;;;;;5077165;28;20418;-65
2020/12/02 08:35:29;;;;;;;41.50;26.93;;;;;;;;;;5077085;28;20486;-63
2020/12/02 08:37:56;;;;;;;41.35;28.92;;;;;;;;;;5076600;28;20759;-65
2020/12/02 08:40:41;;;;;;;41.70;28.77;;;;;;;;;;5075960;28;20165;-64
2020/12/02 08:43:22;;;;;;;37.70;28.30;;;;;;;;;;5076577;28;20683;-64
2020/12/02 08:45:52;;;;;;;35.73;26.50;;;;;;;;;;5077038;28;20414;-65
2020/12/02 08:48:17;;;;;;;35.67;26.30;;;;;;;;;;5076788;28;20433;-64
2020/12/02 08:50:42;;;;;;;36.22;26.88;;;;;;;;;;5076824;28;20458;-65
2020/12/02 08:53:07;;;;;;;35.45;26.17;;;;;;;;;;5077291;28;20192;-65
2020/12/02 08:55:32;;;;;;;36.88;27.45;;;;;;;;;;5075877;28;20199;-64
2020/12/02 08:57:57;;;;;;;37.23;27.53;;;;;;;;;;5076463;28;20558;-64
2020/12/02 09:00:24;;;;;;;46.60;26.80;;;;;;;;;;5077363;28;20157;-64
2020/12/02 09:02:49;;;;;;;40.83;28.10;;;;;;;;;;5076738;28;20180;-64
2020/12/02 09:05:15;;;;;;;36.37;26.10;;;;;;;;;;5076805;28;20399;-64
2020/12/02 09:07:40;;;;;;;35.53;26.67;;;;;;;;;;5078128;28;20157;-64
2020/12/02 09:10:06;;;;;;;34.70;26.70;;;;;;;;;;5080690;28;20228;-64
2020/12/02 09:12:32;;;;;;;33.80;24.83;;;;;;;;;;5080608;28;20164;-65
2020/12/02 09:14:57;;;;;;;31.83;23.20;;;;;;;;;;5080568;28;20406;-64
2020/12/02 09:17:23;;;;;;;31.70;25.00;;;;;;;;;;5080159;28;20600;-64
2020/12/02 09:19:50;;;;;;;37.20;26.10;;;;;;;;;;5080288;28;20175;-65
2020/12/02 09:22:15;;;;;;;35.03;24.70;;;;;;;;;;5080584;28;20165;-62
2020/12/02 09:24:41;;;;;;;33.00;26.13;;;;;;;;;;5080192;28;20502;-64
2020/12/02 09:27:06;;;;;;;40.87;27.87;;;;;;;;;;5079816;28;20366;-65
2020/12/02 09:29:32;;;;;;;32.80;24.10;;;;;;;;;;5080555;28;20169;-65
2020/12/02 09:31:57;;;;;;;33.50;25.40;;;;;;;;;;5080090;28;20200;-66
2020/12/02 09:34:22;;;;;;;37.17;26.07;;;;;;;;;;5080060;28;20215;-65
2020/12/02 09:36:48;;;;;;;39.73;29.37;;;;;;;;;;5080241;28;20531;-65
2020/12/02 09:39:13;;;;;;;40.13;28.07;;;;;;;;;;5079979;28;20161;-64
2020/12/02 09:41:47;;;;;;;39.93;29.20;;;;;;;;;;5079913;28;20180;-63
2020/12/02 09:44:18;;;;;;;38.57;28.00;;;;;;;;;;5080011;28;20172;-65
2020/12/02 09:46:46;;;;;;;34.00;25.70;;;;;;;;;;5079660;28;20674;-64
2020/12/02 09:49:12;;;;;;;36.23;26.30;;;;;;;;;;5079935;28;20419;-64
2020/12/02 09:51:41;;;;;;;34.13;26.30;;;;;;;;;;5079958;28;20489;-63
2020/12/02 09:54:10;;;;;;;35.60;25.87;;;;;;;;;;5079641;28;20416;-62
2020/12/02 09:56:40;;;;;;;37.73;26.40;;;;;;;;;;5079333;28;20403;-63
2020/12/02 09:59:09;;;;;;;37.73;26.47;;;;;;;;;;5079957;28;20793;-63
2020/12/02 10:01:41;;;;;;;36.93;27.73;;;;;;;;;;5079441;28;20404;-64
2020/12/02 10:04:15;;;;;;;37.60;26.93;;;;;;;;;;5079305;28;20408;-63
2020/12/02 10:06:55;;;;;;;36.53;27.10;;;;;;;;;;5079290;28;20402;-65
2020/12/02 10:09:30;;;;;;;38.33;27.80;;;;;;;;;;5079323;28;20443;-64
2020/12/02 10:12:02;;;;;;;39.87;28.60;;;;;;;;;;5079338;28;20454;-65
2020/12/02 10:14:32;;;;;;;38.30;27.37;;;;;;;;;;5079364;28;20481;-65
2020/12/02 10:17:00;;;;;;;40.90;29.80;;;;;;;;;;5079125;28;20445;-65
2020/12/02 10:19:28;;;;;;;43.47;27.90;;;;;;;;;;5078634;28;20407;-64
2020/12/02 10:22:18;;;;;;;39.90;28.13;;;;;;;;;;5079097;28;20800;-64
2020/12/02 10:25:09;;;;;;;36.60;27.30;;;;;;;;;;5078880;28;20400;-64
2020/12/02 10:27:50;;;;;;;39.60;28.30;;;;;;;;;;5078700;28;20532;-65
2020/12/02 10:30:15;;;;;;;41.43;28.77;;;;;;;;;;5078894;28;20443;-66
2020/12/02 10:32:53;;;;;;;41.13;29.13;;;;;;;;;;5079044;28;20427;-66
2020/12/02 10:35:19;;;;;;;39.27;28.43;;;;;;;;;;5078953;28;20157;-65
2020/12/02 10:37:45;;;;;;;41.60;29.20;;;;;;;;;;5078776;28;20404;-64
2020/12/02 10:40:12;;;;;;;37.33;27.90;;;;;;;;;;5078357;28;20189;-64
2020/12/02 10:42:41;;;;;;;39.03;29.10;;;;;;;;;;5079140;28;20388;-65
2020/12/02 10:45:09;;;;;;;41.63;28.83;;;;;;;;;;5078831;28;20497;-65
2020/12/02 10:47:52;;;;;;;36.80;25.93;;;;;;;;;;5078570;28;20827;-63
2020/12/02 10:50:20;;;;;;;41.60;29.40;;;;;;;;;;5078729;28;20486;-65
2020/12/02 10:52:46;;;;;;;38.40;28.17;;;;;;;;;;5078809;28;20410;-64
2020/12/02 10:55:13;;;;;;;42.00;30.67;;;;;;;;;;5078746;28;20835;-65
2020/12/02 10:57:39;;;;;;;39.47;30.07;;;;;;;;;;5078410;28;20407;-65
2020/12/02 11:00:05;;;;;;;43.37;30.87;;;;;;;;;;5078804;28;20506;-66
2020/12/02 11:02:31;;;;;;;42.37;28.97;;;;;;;;;;5078287;28;20400;-65
2020/12/02 11:04:56;;;;;;;40.43;30.30;;;;;;;;;;5078319;28;20654;-64
2020/12/02 11:07:28;;;;;;;40.33;30.00;;;;;;;;;;5078390;28;20248;-63
2020/12/02 11:09:56;;;;;;;36.87;28.50;;;;;;;;;;5078111;28;20523;-63
2020/12/02 11:12:24;;;;;;;42.10;28.53;;;;;;;;;;5078166;28;20414;-64
2020/12/02 11:15:11;;;;;;;40.57;28.77;;;;;;;;;;5078061;28;20396;-64
2020/12/02 11:18:01;;;;;;;40.83;29.10;;;;;;;;;;5078006;28;20422;-63
2020/12/02 11:20:33;;;;;;;39.00;28.43;;;;;;;;;;5078208;28;20460;-62
2020/12/02 11:23:11;;;;;;;40.43;31.03;;;;;;;;;;5078114;28;20408;-63
2020/12/02 11:25:57;;;;;;;41.70;30.80;;;;;;;;;;5078040;28;20485;-63
2020/12/02 11:28:23;;;;;;;45.20;29.70;;;;;;;;;;5077997;28;20411;-63
2020/12/02 11:30:48;;;;;;;44.33;31.23;;;;;;;;;;5077279;28;20929;-63
2020/12/02 11:33:16;;;;;;;41.83;30.70;;;;;;;;;;5077426;28;20594;-64
2020/12/02 11:36:05;;;;;;;40.50;28.77;;;;;;;;;;5077994;28;20239;-63
2020/12/02 11:38:30;;;;;;;41.43;29.17;;;;;;;;;;5077501;28;20395;-62
2020/12/02 11:41:05;;;;;;;37.03;27.70;;;;;;;;;;5077605;28;20668;-64
2020/12/02 11:43:36;;;;;;;40.90;29.33;;;;;;;;;;5077622;28;20433;-63
2020/12/02 11:46:01;;;;;;;41.03;28.40;;;;;;;;;;5077427;28;20418;-64
2020/12/02 11:48:31;;;;;;;43.60;29.17;;;;;;;;;;5077315;28;20809;-64
2020/12/02 11:51:08;;;;;;;40.00;28.53;;;;;;;;;;5077386;28;20208;-64
2020/12/02 11:53:36;;;;;;;40.47;28.63;;;;;;;;;;5077544;28;20468;-64
2020/12/02 11:56:02;;;;;;;42.20;29.10;;;;;;;;;;5077376;28;20461;-65
2020/12/02 11:58:27;;;;;;;41.40;30.57;;;;;;;;;;5077716;28;20411;-64
2020/12/02 12:00:54;;;;;;;41.67;29.17;;;;;;;;;;5077373;28;20171;-64
2020/12/02 12:03:29;;;;;;;43.20;30.37;;;;;;;;;;5077244;28;20227;-64
2020/12/02 12:06:01;;;;;;;41.20;29.10;;;;;;;;;;5077481;28;20891;-63
2020/12/02 12:08:32;;;;;;;41.40;30.57;;;;;;;;;;5077262;28;20839;-63
2020/12/02 12:11:00;;;;;;;38.93;29.07;;;;;;;;;;5077160;28;20504;-64
2020/12/02 12:13:29;;;;;;;38.57;29.90;;;;;;;;;;5077354;28;20415;-65
2020/12/02 12:15:58;;;;;;;45.00;30.97;;;;;;;;;;5077361;28;20460;-64
2020/12/02 12:18:31;;;;;;;41.90;30.00;;;;;;;;;;5077079;28;20441;-63
2020/12/02 12:20:58;;;;;;;41.70;29.73;;;;;;;;;;5076954;28;20680;-65
2020/12/02 12:23:36;;;;;;;41.50;29.50;;;;;;;;;;5077081;28;20718;-65
2020/12/02 12:26:04;;;;;;;38.73;27.90;;;;;;;;;;5076885;28;20407;-64
2020/12/02 12:28:29;;;;;;;40.13;30.67;;;;;;;;;;5076720;28;20395;-63
2020/12/02 12:30:58;;;;;;;43.00;32.23;;;;;;;;;;5076089;28;20469;-66
2020/12/02 12:33:39;;;;;;;40.77;29.37;;;;;;;;;;5077316;28;20237;-64
2020/12/02 12:36:11;;;;;;;40.20;30.00;;;;;;;;;;5076889;28;20406;-63
2020/12/02 12:38:40;;;;;;;40.60;29.73;;;;;;;;;;5077003;28;20411;-63
2020/12/02 12:41:23;;;;;;;39.40;29.97;;;;;;;;;;5076776;28;20399;-63
2020/12/02 12:43:55;;;;;;;39.00;27.70;;;;;;;;;;5079614;28;20489;-62
2020/12/02 12:46:25;;;;;;;41.30;29.03;;;;;;;;;;5080826;28;20816;-63
2020/12/02 12:48:50;;;;;;;38.17;28.57;;;;;;;;;;5080812;28;20419;-64
2020/12/02 12:51:16;;;;;;;42.77;30.23;;;;;;;;;;5080742;28;21019;-64
2020/12/02 12:53:42;;;;;;;39.13;29.47;;;;;;;;;;5081121;28;20581;-65
2020/12/02 12:56:10;;;;;;;42.03;31.50;;;;;;;;;;5080955;28;20169;-63
2020/12/02 12:58:35;;;;;;;37.20;27.90;;;;;;;;;;5080528;28;20172;-64
2020/12/02 13:01:01;;;;;;;42.60;29.90;;;;;;;;;;5080538;28;20414;-63
2020/12/02 13:03:29;;;;;;;39.33;29.83;;;;;;;;;;5074617;28;20602;-63
2020/12/02 13:05:57;;;;;;;42.23;29.50;;;;;;;;;;5069402;28;20543;-62
2020/12/02 13:08:28;;;;;;;42.37;30.00;;;;;;;;;;5069829;28;20670;-63
2020/12/02 13:10:57;;;;;;;40.37;29.93;;;;;;;;;;5068500;28;20451;-63
2020/12/02 13:13:41;;;;;;;44.90;31.70;;;;;;;;;;5068838;28;20494;-63
2020/12/02 13:16:35;;;;;;;47.37;31.90;;;;;;;;;;5069940;28;20407;-63
2020/12/02 13:19:16;;;;;;;42.40;30.30;;;;;;;;;;5066511;28;20412;-63
2020/12/02 13:21:59;;;;;;;44.80;30.47;;;;;;;;;;5069695;28;20672;-63
2020/12/02 13:24:34;;;;;;;42.60;31.43;;;;;;;;;;5070147;28;20642;-64
2020/12/02 13:27:09;;;;;;;40.23;29.00;;;;;;;;;;5065096;28;20852;-64
2020/12/02 13:29:37;;;;;;;40.63;28.50;;;;;;;;;;5065136;28;20421;-67
2020/12/02 13:32:18;;;;;;;39.90;29.93;;;;;;;;;;5067677;28;20469;-63
2020/12/02 13:34:43;;;;;;;38.70;29.37;;;;;;;;;;5072968;28;20405;-64
2020/12/02 13:37:12;;;;;;;41.43;29.43;;;;;;;;;;5072180;28;20407;-64
2020/12/02 13:39:38;;;;;;;37.97;28.10;;;;;;;;;;5068339;28;20165;-64
2020/12/02 13:42:05;;;;;;;38.40;28.97;;;;;;;;;;5070090;28;20407;-64
2020/12/02 13:44:50;;;;;;;38.70;28.27;;;;;;;;;;5067366;28;20413;-64
2020/12/02 13:47:16;;;;;;;40.10;29.10;;;;;;;;;;5069826;28;20548;-62
2020/12/02 13:49:42;;;;;;;40.60;28.90;;;;;;;;;;5072532;28;20440;-64
2020/12/02 13:52:16;;;;;;;36.20;28.90;;;;;;;;;;5075197;28;20490;-65
2020/12/02 13:54:48;;;;;;;38.57;30.50;;;;;;;;;;5066126;28;20172;-62
2020/12/02 13:57:40;;;;;;;40.80;30.20;;;;;;;;;;5069069;28;20442;-63
2020/12/02 14:00:19;;;;;;;43.80;30.10;;;;;;;;;;5070671;28;20423;-63
2020/12/02 14:02:48;;;;;;;42.33;30.07;;;;;;;;;;5078342;28;20391;-64
2020/12/02 14:05:19;;;;;;;41.43;29.37;;;;;;;;;;5078477;28;20427;-65
2020/12/02 14:07:47;;;;;;;44.30;30.40;;;;;;;;;;5077687;28;20406;-63
2020/12/02 14:10:12;;;;;;;38.87;29.27;;;;;;;;;;5071506;28;20951;-63
2020/12/02 14:12:40;;;;;;;45.57;30.37;;;;;;;;;;5066928;28;20462;-63
2020/12/02 14:15:06;;;;;;;40.63;30.40;;;;;;;;;;5067964;28;20197;-62
2020/12/02 14:17:31;;;;;;;42.40;31.17;;;;;;;;;;5065012;28;20530;-63
2020/12/02 14:19:56;;;;;;;40.70;29.60;;;;;;;;;;5069467;28;20475;-63
2020/12/02 14:22:23;;;;;;;28.52;20.08;;;;;;;;;;5076561;28;20496;-61
2020/12/02 14:24:50;;;;;;;28.80;23.50;;;;;;;;;;5068657;28;20219;-62